Time;durP1;ratioP1;P1;durP2;ratioP2;P2;SDS_P1;SDS_P2;PMS_P1;PMS_P2;Temp;Humidity;BMP_temperature;BMP_pressure;BME280_temperature;BME280_humidity;BME280_pressure;Samples;Min_cycle;Max_cycle;Signal;HPM_P1;HPM_P2
2022/03/22 00:02:29;;;;;;;18.38;11.65;;;;;;;5.15;26.50;99639.09;12640270;23;20029;-78
2022/03/22 00:07:50;;;;;;;19.20;11.70;;;;;;;5.10;26.50;99629.53;12619348;23;20022;-79
2022/03/22 00:13:11;;;;;;;19.55;12.45;;;;;;;5.04;26.99;99628.84;12618901;23;20024;-78
2022/03/22 00:18:32;;;;;;;21.30;13.27;;;;;;;4.92;27.18;99621.84;12639375;23;20017;-78
2022/03/22 00:23:54;;;;;;;19.95;12.15;;;;;;;4.76;27.50;99626.22;12599922;23;20036;-79
2022/03/22 00:29:15;;;;;;;20.98;12.65;;;;;;;4.67;27.39;99626.50;12638446;23;20014;-78
2022/03/22 00:34:44;;;;;;;20.58;12.73;;;;;;;4.60;28.24;99625.00;12638485;23;20072;-78
2022/03/22 00:40:17;;;;;;;22.85;13.95;;;;;;;4.49;28.29;99629.84;12660380;23;20018;-78
2022/03/22 00:45:38;;;;;;;23.77;14.50;;;;;;;4.39;28.56;99625.84;12624743;23;20021;-78
2022/03/22 00:50:59;;;;;;;38.95;14.48;;;;;;;4.35;28.39;99625.38;12619341;23;20025;-78
2022/03/22 00:56:20;;;;;;;22.27;14.52;;;;;;;4.24;28.35;99626.88;12638978;23;20014;-78
2022/03/22 01:01:41;;;;;;;22.45;12.93;;;;;;;4.19;28.62;99624.88;12636993;23;20033;-77
2022/03/22 01:07:03;;;;;;;21.65;13.80;;;;;;;4.15;29.07;99623.63;12659346;23;20686;-78
2022/03/22 01:12:24;;;;;;;22.00;13.23;;;;;;;4.05;29.39;99619.63;12619874;23;20022;-78
2022/03/22 01:17:49;;;;;;;21.27;12.80;;;;;;;3.94;29.91;99614.88;12620362;23;20026;-78
2022/03/22 01:23:10;;;;;;;25.63;13.45;;;;;;;3.86;29.75;99602.81;12653687;23;20025;-78
2022/03/22 01:28:31;;;;;;;24.30;14.38;;;;;;;3.85;29.63;99615.13;12620288;23;20042;-78
2022/03/22 01:33:52;;;;;;;22.30;13.48;;;;;;;3.64;30.53;99609.88;12619105;23;20068;-79
2022/03/22 01:39:13;;;;;;;26.35;14.10;;;;;;;3.56;30.49;99606.13;12639419;23;20029;-79
2022/03/22 01:44:34;;;;;;;24.98;14.95;;;;;;;3.48;31.09;99596.84;12621027;23;20030;-79
2022/03/22 01:49:54;;;;;;;24.33;14.35;;;;;;;3.37;31.14;99591.28;12662248;23;20018;-79
2022/03/22 01:55:16;;;;;;;24.92;14.57;;;;;;;3.32;30.77;99595.56;12640828;23;20018;-78
2022/03/22 02:00:37;;;;;;;24.65;14.82;;;;;;;3.26;31.75;99588.53;12641887;23;20085;-77
2022/03/22 02:05:58;;;;;;;23.20;14.23;;;;;;;3.26;31.38;99591.28;12622593;23;20014;-78
2022/03/22 02:11:19;;;;;;;24.98;13.82;;;;;;;3.23;32.29;99586.78;12622228;23;20337;-78
2022/03/22 02:16:40;;;;;;;21.95;13.30;;;;;;;3.22;31.41;99579.75;12662140;23;20041;-78
2022/03/22 02:22:01;;;;;;;23.88;14.23;;;;;;;3.11;32.39;99586.78;12658878;23;20390;-79
2022/03/22 02:27:25;;;;;;;23.25;14.15;;;;;;;3.09;32.12;99569.97;12662514;23;20041;-78
2022/03/22 02:32:50;;;;;;;27.45;15.15;;;;;;;3.03;32.42;99569.19;12643277;23;20021;-78
2022/03/22 02:38:12;;;;;;;22.98;13.02;;;;;;;3.02;32.50;99572.47;12622204;23;20037;-78
2022/03/22 02:43:33;;;;;;;24.33;14.43;;;;;;;2.98;32.27;99578.22;12641595;23;20021;-78
2022/03/22 02:48:54;;;;;;;23.10;14.30;;;;;;;2.93;32.69;99570.69;12621593;23;20022;-78
2022/03/22 02:54:15;;;;;;;25.42;14.00;;;;;;;2.91;32.73;99572.44;12662305;23;20327;-78
2022/03/22 02:59:36;;;;;;;22.70;12.95;;;;;;;2.88;33.05;99568.66;12621709;23;20022;-78
2022/03/22 03:04:59;;;;;;;22.88;13.18;;;;;;;2.92;32.96;99573.94;12622149;23;20046;-78
2022/03/22 03:10:21;;;;;;;21.17;13.15;;;;;;;2.91;33.00;99564.91;12661237;23;20022;-78
2022/03/22 03:15:42;;;;;;;21.80;13.75;;;;;;;2.91;33.28;99578.72;12662420;23;20013;-78
2022/03/22 03:21:04;;;;;;;20.30;13.18;;;;;;;2.92;33.10;99569.19;12662750;23;20014;-78
2022/03/22 03:26:26;;;;;;;23.38;13.80;;;;;;;2.90;33.22;99582.72;12682530;23;20014;-79
2022/03/22 03:31:47;;;;;;;25.10;14.45;;;;;;;2.81;33.36;99580.19;12662295;23;20026;-79
2022/03/22 03:37:08;;;;;;;23.98;13.68;;;;;;;2.77;33.13;99590.69;12641939;23;20014;-78
2022/03/22 03:42:29;;;;;;;25.08;13.13;;;;;;;2.72;33.27;99580.41;12662348;23;20021;-78
2022/03/22 03:47:51;;;;;;;22.15;13.20;;;;;;;2.69;33.52;99589.66;12643466;23;20022;-79
2022/03/22 03:53:12;;;;;;;26.45;13.50;;;;;;;2.64;33.83;99580.13;12622701;23;20014;-78
2022/03/22 03:58:33;;;;;;;22.58;13.80;;;;;;;2.51;33.91;99580.59;12642173;23;20014;-79
2022/03/22 04:03:53;;;;;;;23.73;14.18;;;;;;;2.47;34.90;99585.59;12641596;23;20030;-78
2022/03/22 04:09:15;;;;;;;24.17;13.35;;;;;;;2.45;34.59;99582.56;12642634;23;20025;-78
2022/03/22 04:14:36;;;;;;;22.40;14.25;;;;;;;2.42;34.33;99582.81;12642722;23;20026;-78
2022/03/22 04:19:57;;;;;;;26.60;14.45;;;;;;;2.42;34.43;99588.34;12642243;23;20013;-78
2022/03/22 04:25:19;;;;;;;26.05;13.60;;;;;;;2.39;34.78;99590.06;12628963;23;20014;-78
2022/03/22 04:36:20;;;;;;;25.25;15.63;;;;;;;2.29;34.89;99583.25;12647834;23;20026;-79
2022/03/22 04:41:41;;;;;;;27.55;16.23;;;;;;;2.26;34.87;99587.00;12648890;23;20105;-79
2022/03/22 04:47:02;;;;;;;21.25;13.48;;;;;;;2.23;35.11;99593.50;12646635;23;20049;-79
2022/03/22 04:58:03;;;;;;;29.40;16.17;;;;;;;2.13;35.26;99595.72;12654505;23;20029;-78
2022/03/22 05:03:24;;;;;;;26.70;14.98;;;;;;;2.14;35.63;99594.47;12643179;23;20048;-79
2022/03/22 05:08:44;;;;;;;26.38;15.75;;;;;;;2.20;35.93;99611.00;12652629;23;20049;-79
2022/03/22 05:14:05;;;;;;;25.00;15.30;;;;;;;2.33;35.43;99614.09;12629167;23;20022;-79
2022/03/22 05:19:26;;;;;;;30.73;16.20;;;;;;;2.49;35.91;99610.66;12630839;23;20040;-79
2022/03/22 05:24:47;;;;;;;26.58;15.55;;;;;;;2.87;35.55;99605.78;12653343;23;20024;-79
2022/03/22 05:30:08;;;;;;;23.90;15.77;;;;;;;3.27;35.64;99610.13;12625812;23;20029;-79
2022/03/22 05:35:29;;;;;;;24.33;15.90;;;;;;;3.72;35.16;99610.13;12601068;23;20025;-78
2022/03/22 05:40:50;;;;;;;27.38;16.05;;;;;;;4.26;35.35;99616.09;12664841;23;20025;-78
2022/03/22 05:46:11;;;;;;;28.33;17.05;;;;;;;5.16;34.51;99613.66;12664497;23;20037;-79
2022/03/22 05:51:33;;;;;;;28.42;16.50;;;;;;;8.23;33.21;99621.53;12685064;23;20306;-79
2022/03/22 05:56:53;;;;;;;26.60;16.90;;;;;;;11.63;31.08;99619.06;12648849;23;20014;-80
2022/03/22 06:02:16;;;;;;;28.02;16.83;;;;;;;14.23;28.60;99618.78;12624672;23;20345;-79
2022/03/22 06:07:37;;;;;;;24.45;16.58;;;;;;;16.00;25.20;99627.22;12693669;23;20394;-78
2022/03/22 06:12:58;;;;;;;25.13;16.42;;;;;;;17.26;23.86;99621.66;12649496;23;20022;-79
2022/03/22 06:18:19;;;;;;;26.60;15.80;;;;;;;16.25;24.08;99636.19;12658130;23;20028;-80
2022/03/22 06:23:40;;;;;;;24.33;15.80;;;;;;;18.69;20.60;99637.78;12655502;23;20008;-79
2022/03/22 06:29:01;;;;;;;20.92;15.30;;;;;;;18.98;20.01;99629.81;12642024;23;20018;-82
2022/03/22 06:34:21;;;;;;;21.80;15.57;;;;;;;17.15;19.26;99620.94;12638252;23;20021;-82
2022/03/22 06:39:42;;;;;;;18.00;13.82;;;;;;;16.28;20.61;99629.38;12678941;23;20013;-80
2022/03/22 06:45:04;;;;;;;16.80;13.48;;;;;;;15.80;19.70;99636.94;12679360;23;20030;-79
2022/03/22 06:50:25;;;;;;;17.02;12.90;;;;;;;18.60;18.18;99628.00;12658263;23;20017;-79
2022/03/22 06:55:46;;;;;;;16.50;11.93;;;;;;;24.57;15.93;99631.84;12638898;23;20088;-79
2022/03/22 07:01:07;;;;;;;15.93;11.23;;;;;;;29.85;11.39;99642.03;12638688;23;20099;-81
2022/03/22 07:06:29;;;;;;;15.80;11.52;;;;;;;31.26;8.97;99647.44;12658440;23;20445;-82
2022/03/22 07:11:50;;;;;;;15.25;12.30;;;;;;;34.33;8.16;99647.25;12618774;23;20022;-81
2022/03/22 07:17:11;;;;;;;14.10;11.70;;;;;;;36.97;6.11;99656.66;12657748;23;20093;-82
2022/03/22 07:22:32;;;;;;;14.38;11.57;;;;;;;37.81;4.33;99654.31;12633458;23;20032;-82
2022/03/22 07:27:54;;;;;;;14.25;11.52;;;;;;;39.10;3.46;99659.00;12638183;23;20093;-82
2022/03/22 07:33:15;;;;;;;14.70;11.43;;;;;;;39.81;3.41;99662.06;12638483;23;20018;-82
2022/03/22 07:38:36;;;;;;;20.38;11.00;;;;;;;40.50;3.27;99655.44;12637447;23;20508;-81
2022/03/22 07:43:58;;;;;;;18.25;11.02;;;;;;;40.85;3.16;99655.34;12618174;23;20017;-82
2022/03/22 07:54:59;;;;;;;14.15;9.35;;;;;;;42.75;2.24;99650.56;12623586;23;20022;-82
2022/03/22 08:00:20;;;;;;;16.70;10.18;;;;;;;43.23;1.96;99653.34;12615475;23;20093;-82
2022/03/22 08:05:41;;;;;;;11.75;10.50;;;;;;;44.30;1.86;99653.06;12595200;23;20024;-82
2022/03/22 08:11:02;;;;;;;14.95;9.82;;;;;;;43.97;1.46;99652.13;12591025;23;20026;-84
2022/03/22 08:16:26;;;;;;;13.43;8.77;;;;;;;43.90;1.15;99647.97;12615003;23;20026;-83
2022/03/22 08:21:48;;;;;;;11.27;8.38;;;;;;;43.11;1.53;99647.91;12615161;23;20032;-83
2022/03/22 08:27:09;;;;;;;9.02;7.97;;;;;;;44.18;1.48;99640.28;12594965;23;20028;-82
2022/03/22 08:32:30;;;;;;;11.88;7.60;;;;;;;44.82;1.07;99632.53;12614105;23;20075;-83
2022/03/22 08:37:52;;;;;;;12.10;7.38;;;;;;;45.98;0.50;99632.56;12615917;23;20017;-82
2022/03/22 08:43:13;;;;;;;8.52;6.40;;;;;;;44.50;0.72;99619.88;12617305;23;20076;-82
2022/03/22 08:48:37;;;;;;;9.05;5.88;;;;;;;43.74;0.72;99627.31;12636512;23;20272;-79
2022/03/22 08:53:58;;;;;;;6.75;5.88;;;;;;;43.82;0.53;99618.16;12617645;23;20333;-80
2022/03/22 08:59:19;;;;;;;7.07;5.65;;;;;;;43.13;1.29;99621.38;12616941;23;20025;-79
2022/03/22 09:10:25;;;;;;;8.98;6.55;;;;;;;46.85;0.40;99612.81;12625767;23;20314;-80
2022/03/22 09:15:48;;;;;;;9.48;6.50;;;;;;;46.44;0.42;99612.63;12617279;23;20022;-82
2022/03/22 09:21:10;;;;;;;7.82;6.78;;;;;;;45.75;0.42;99606.34;12636835;23;20468;-83
2022/03/22 09:26:32;;;;;;;6.95;6.07;;;;;;;46.37;0.55;99599.66;12636568;23;20022;-83
2022/03/22 09:31:53;;;;;;;11.27;7.25;;;;;;;45.28;0.53;99602.56;12636262;23;20065;-84
2022/03/22 09:37:16;;;;;;;13.13;7.55;;;;;;;45.42;0.57;99601.22;12596515;23;20018;-82
2022/03/22 09:42:45;;;;;;;10.45;6.70;;;;;;;43.66;0.79;99602.56;12617050;23;20022;-82
2022/03/22 09:48:07;;;;;;;13.23;6.35;;;;;;;45.07;0.91;99588.75;12637775;23;20018;-83
2022/03/22 09:53:28;;;;;;;15.23;7.30;;;;;;;47.26;0.92;99594.38;12635749;23;20014;-88
2022/03/22 09:58:53;;;;;;;9.95;6.97;;;;;;;46.29;0.57;99599.34;12616494;23;20018;-82
2022/03/22 10:04:14;;;;;;;13.57;6.70;;;;;;;45.75;0.30;99588.66;12637016;23;20026;-82
2022/03/22 10:09:36;;;;;;;7.50;6.30;;;;;;;47.28;0.52;99573.56;12639704;23;20055;-81
2022/03/22 10:15:14;;;;;;;11.07;6.20;;;;;;;46.02;0.40;99579.97;12620132;23;20045;-79
2022/03/22 10:20:37;;;;;;;10.98;6.60;;;;;;;46.27;0.63;99561.09;12620083;23;20105;-78
2022/03/22 10:26:06;;;;;;;7.85;5.75;;;;;;;46.90;0.66;99563.78;12618161;23;20020;-79
2022/03/22 10:31:40;;;;;;;8.98;6.32;;;;;;;46.75;0.50;99552.00;12637662;23;20025;-84
2022/03/22 10:37:01;;;;;;;7.55;5.78;;;;;;;46.92;0.59;99555.56;12599098;23;20445;-83
2022/03/22 10:42:23;;;;;;;10.13;5.65;;;;;;;48.00;0.13;99548.97;12574967;23;20433;-83
2022/03/22 10:47:44;;;;;;;8.80;5.80;;;;;;;47.76;0.00;99554.69;12638668;23;20034;-88
2022/03/22 10:53:05;;;;;;;11.07;5.30;;;;;;;47.39;0.35;99540.50;12618932;23;20101;-86
2022/03/22 10:58:27;;;;;;;9.00;6.07;;;;;;;47.00;0.30;99527.81;12655576;23;20346;-82
2022/03/22 11:03:49;;;;;;;10.90;6.97;;;;;;;43.36;0.77;99524.38;12615026;23;20021;-83
2022/03/22 11:09:10;;;;;;;10.75;7.78;;;;;;;37.18;2.30;99506.53;12614812;23;20022;-82
2022/03/22 11:14:32;;;;;;;12.40;8.70;;;;;;;33.10;3.92;99494.03;12615340;23;20472;-83
2022/03/22 11:19:52;;;;;;;10.75;7.60;;;;;;;30.57;4.72;99487.81;12615814;23;20377;-83
2022/03/22 11:25:13;;;;;;;;;;;;;;;29.19;5.84;99475.25;12599088;23;20022;-84
2022/03/22 11:30:36;;;;;;;11.68;8.75;;;;;;;28.00;6.35;99468.16;12638053;23;19939;-88
2022/03/22 11:36:20;;;;;;;10.18;7.28;;;;;;;27.18;7.23;99458.75;12596812;23;20457;-88
2022/03/22 11:47:22;;;;;;;13.40;6.38;;;;;;;25.52;7.42;99443.41;12622593;23;20022;-87
2022/03/22 11:52:43;;;;;;;9.73;6.65;;;;;;;25.02;7.69;99440.91;12610681;23;20022;-86
2022/03/22 11:58:10;;;;;;;7.93;5.47;;;;;;;25.00;7.96;99432.25;12592621;23;20374;-85
2022/03/22 12:03:37;;;;;;;9.48;5.72;;;;;;;24.10;7.77;99413.75;12635666;23;20021;-85
2022/03/22 12:08:59;;;;;;;6.88;4.93;;;;;;;22.85;8.32;99410.53;12675908;23;20025;-88
2022/03/22 12:14:28;;;;;;;8.27;5.03;;;;;;;22.21;8.30;99411.09;12616222;23;20018;-89
2022/03/22 12:19:49;;;;;;;5.65;4.40;;;;;;;21.90;8.40;99389.66;12657604;23;20025;-88
2022/03/22 12:25:11;;;;;;;7.00;4.38;;;;;;;21.40;8.65;99391.44;12621118;23;20022;-85
2022/03/22 12:30:39;;;;;;;8.57;4.20;;;;;;;20.97;8.92;99399.13;12639101;23;20089;-80
2022/03/22 12:36:01;;;;;;;9.73;5.18;;;;;;;21.07;8.71;99383.34;12616647;23;20022;-88
2022/03/22 12:41:22;;;;;;;8.38;5.00;;;;;;;21.04;9.18;99398.09;12614178;23;20464;-87
2022/03/22 12:46:43;;;;;;;6.85;4.28;;;;;;;20.69;9.14;99379.22;12634675;23;20045;-88
2022/03/22 12:52:04;;;;;;;9.90;4.50;;;;;;;20.60;9.13;99394.31;12633155;23;20014;-85
2022/03/22 12:57:25;;;;;;;5.90;4.50;;;;;;;20.36;9.04;99379.50;12654449;23;20018;-87
2022/03/22 13:02:46;;;;;;;10.68;4.80;;;;;;;20.38;9.43;99376.06;12613447;23;20053;-88
2022/03/22 13:08:21;;;;;;;8.00;5.03;;;;;;;20.37;9.34;99360.44;12614304;23;20018;-88
2022/03/22 13:19:31;;;;;;;;;;;;;;;19.84;9.72;99378.06;12640931;23;20097;-88
2022/03/22 13:25:06;;;;;;;4.78;3.90;;;;;;;19.71;10.09;99361.72;12653564;23;19917;-89
2022/03/22 13:30:29;;;;;;;5.45;4.22;;;;;;;19.67;9.53;99356.56;12615076;23;20022;-88
2022/03/22 13:36:01;;;;;;;6.05;4.28;;;;;;;19.48;10.06;99342.66;12636707;23;20018;-88
2022/03/22 13:41:26;;;;;;;5.07;4.00;;;;;;;19.44;10.10;99339.63;12620489;23;20080;-88
2022/03/22 13:46:50;;;;;;;6.70;3.80;;;;;;;19.43;10.31;99333.22;12621217;23;20444;-89
2022/03/22 13:52:11;;;;;;;4.68;3.70;;;;;;;19.35;10.58;99332.00;12640246;23;20022;-89
2022/03/22 13:57:35;;;;;;;5.40;4.22;;;;;;;19.37;10.35;99329.28;12640312;23;20024;-83
2022/03/22 14:02:59;;;;;;;6.47;4.07;;;;;;;19.16;10.27;99324.53;12634617;23;20341;-86
2022/03/22 14:08:20;;;;;;;9.52;4.28;;;;;;;19.09;10.53;99317.03;12640016;23;20093;-83
2022/03/22 14:13:41;;;;;;;9.57;4.05;;;;;;;19.24;10.43;99304.47;12638412;23;20028;-85
2022/03/22 14:19:01;;;;;;;6.65;4.40;;;;;;;19.00;10.85;99309.44;12659769;23;20017;-85
2022/03/22 14:24:42;;;;;;;5.85;4.03;;;;;;;19.00;10.75;99301.69;12631880;23;20332;-83
2022/03/22 14:30:06;;;;;;;8.25;4.80;;;;;;;18.77;11.06;99293.22;12638802;23;20336;-83
2022/03/22 14:46:46;;;;;;;8.02;3.92;;;;;;;18.54;11.37;99269.25;12663029;23;20089;-85
2022/03/22 15:03:28;;;;;;;6.60;4.00;;;;;;;18.40;11.57;99268.38;12642010;23;20057;-85
2022/03/22 15:08:50;;;;;;;5.10;3.95;;;;;;;18.18;11.87;99256.44;12658769;23;20022;-83
2022/03/22 15:14:15;;;;;;;6.35;3.78;;;;;;;18.11;12.23;99256.69;12617852;23;20433;-84
2022/03/22 15:19:36;;;;;;;4.55;3.78;;;;;;;18.03;12.25;99254.09;12618916;23;20022;-84
2022/03/22 15:24:56;;;;;;;4.68;3.78;;;;;;;17.96;12.43;99255.81;12617591;23;20026;-84
2022/03/22 15:30:39;;;;;;;4.75;3.65;;;;;;;17.89;12.43;99245.47;12541623;23;20454;-83
2022/03/22 15:36:00;;;;;;;5.55;3.40;;;;;;;17.81;12.53;99250.59;12518887;23;20030;-85
2022/03/22 15:41:36;;;;;;;4.43;3.25;;;;;;;17.63;12.83;99243.78;12565525;23;20019;-84
2022/03/22 15:46:57;;;;;;;8.07;3.75;;;;;;;17.57;12.98;99249.06;12579139;23;20022;-81
2022/03/22 15:52:18;;;;;;;7.38;3.60;;;;;;;17.44;13.06;99241.88;12621977;23;20069;-81
2022/03/22 15:57:39;;;;;;;9.02;3.47;;;;;;;17.41;13.34;99245.91;12640614;23;20089;-82
2022/03/22 16:03:01;;;;;;;8.77;3.92;;;;;;;17.30;13.57;99249.44;12596869;23;20011;-81
2022/03/22 16:08:22;;;;;;;6.35;3.78;;;;;;;17.13;13.90;99247.63;12623698;23;20489;-81
2022/03/22 16:13:46;;;;;;;6.18;4.13;;;;;;;16.94;14.27;99237.22;12614058;23;20022;-78
2022/03/22 16:19:17;;;;;;;9.65;4.40;;;;;;;16.78;14.27;99247.41;12654847;23;20010;-77
2022/03/22 16:24:39;;;;;;;6.70;3.67;;;;;;;16.60;14.35;99232.81;12635192;23;20014;-77
2022/03/22 16:30:00;;;;;;;7.75;4.07;;;;;;;16.40;15.21;99232.16;12674259;23;20013;-79
2022/03/22 16:41:18;;;;;;;11.30;4.05;;;;;;;16.18;15.19;99239.84;12582206;23;20030;-78
2022/03/22 16:46:39;;;;;;;9.25;4.13;;;;;;;16.02;15.44;99244.34;12645481;23;20014;-77
2022/03/22 16:52:01;;;;;;;10.40;3.83;;;;;;;15.88;15.90;99243.34;12613841;23;20025;-77
2022/03/22 17:03:41;;;;;;;10.43;4.60;;;;;;;15.60;15.72;99239.22;12684634;23;20010;-77
2022/03/22 17:15:18;;;;;;;15.63;4.20;;;;;;;15.33;16.34;99251.38;12653709;23;20041;-80
2022/03/22 17:20:39;;;;;;;6.28;4.47;;;;;;;15.11;16.85;99250.50;12662065;23;20046;-82
2022/03/22 17:32:17;;;;;;;6.53;3.92;;;;;;;14.76;16.99;99263.31;12655205;23;20252;-79
2022/03/22 17:37:38;;;;;;;7.68;3.83;;;;;;;14.58;16.84;99259.91;12643968;23;20026;-78
2022/03/22 17:43:00;;;;;;;11.45;4.07;;;;;;;14.46;17.38;99262.50;12579965;23;20049;-80
2022/03/22 17:48:22;;;;;;;7.55;4.18;;;;;;;14.39;17.33;99262.63;12630733;23;20022;-81
2022/03/22 17:53:43;;;;;;;6.10;4.05;;;;;;;14.29;17.62;99262.56;12652713;23;20102;-81
2022/03/22 17:59:04;;;;;;;7.60;4.03;;;;;;;14.26;17.38;99260.91;12648372;23;20025;-80
2022/03/22 18:04:25;;;;;;;6.68;3.63;;;;;;;14.19;17.64;99264.59;12603504;23;20023;-78
2022/03/22 18:09:46;;;;;;;8.43;4.03;;;;;;;14.08;17.51;99271.47;12534639;23;20027;-78
2022/03/22 18:15:08;;;;;;;10.13;4.47;;;;;;;13.97;18.09;99277.63;12565760;23;20075;-79
2022/03/22 18:20:29;;;;;;;7.65;4.57;;;;;;;13.83;18.07;99282.13;12538069;23;20106;-78
2022/03/22 18:25:51;;;;;;;7.68;4.07;;;;;;;13.76;17.90;99286.50;12564201;23;20015;-79
2022/03/22 18:31:12;;;;;;;7.32;4.45;;;;;;;13.69;18.29;99290.88;12565929;23;20090;-77
2022/03/22 18:36:36;;;;;;;7.18;4.65;;;;;;;13.62;18.07;99293.81;12548547;23;20023;-79
2022/03/22 18:41:57;;;;;;;12.33;5.67;;;;;;;13.52;18.16;99287.38;12544162;23;20023;-78
2022/03/22 18:47:18;;;;;;;10.93;4.63;;;;;;;13.41;18.53;99288.59;12529214;23;20106;-76
2022/03/22 18:52:38;;;;;;;8.63;5.40;;;;;;;13.31;18.59;99291.34;12567117;23;20025;-80
2022/03/22 18:58:04;;;;;;;7.55;5.13;;;;;;;13.20;18.73;99293.91;12504047;23;20044;-76
2022/03/22 19:03:27;;;;;;;11.68;5.68;;;;;;;13.10;19.05;99299.38;12531699;23;20030;-77
2022/03/22 19:08:49;;;;;;;11.38;5.88;;;;;;;13.03;18.99;99308.63;12545029;23;20438;-76
2022/03/22 19:14:10;;;;;;;10.07;6.72;;;;;;;12.97;19.07;99308.13;12566677;23;20019;-76
2022/03/22 19:19:33;;;;;;;10.43;6.93;;;;;;;12.89;19.22;99308.91;12503051;23;20450;-76
2022/03/22 19:24:56;;;;;;;15.80;6.78;;;;;;;12.87;19.38;99319.97;12544296;23;20023;-76
2022/03/22 19:30:23;;;;;;;12.10;6.78;;;;;;;12.83;19.52;99325.22;12554308;23;20093;-78
2022/03/22 19:35:44;;;;;;;11.73;6.75;;;;;;;12.75;19.45;99318.97;12504020;23;20019;-76
2022/03/22 19:41:05;;;;;;;10.48;6.80;;;;;;;12.68;19.71;99319.75;12563072;23;20343;-77
2022/03/22 19:46:27;;;;;;;9.88;6.68;;;;;;;12.59;19.64;99323.94;12563261;23;20026;-76
2022/03/22 19:51:47;;;;;;;11.93;6.75;;;;;;;12.48;19.76;99326.44;12545011;23;20080;-77
2022/03/22 19:57:08;;;;;;;9.93;6.57;;;;;;;12.33;19.97;99330.81;12543095;23;20379;-76
2022/03/22 20:02:30;;;;;;;9.88;6.72;;;;;;;12.22;20.56;99331.28;12524140;23;20018;-76
2022/03/22 20:07:52;;;;;;;13.02;6.78;;;;;;;12.14;20.49;99329.81;12563250;23;20014;-77
2022/03/22 20:13:13;;;;;;;11.07;6.07;;;;;;;12.12;20.13;99333.19;12543232;23;20446;-76
2022/03/22 20:18:34;;;;;;;8.80;6.47;;;;;;;12.03;20.35;99331.75;12550630;23;20023;-78
2022/03/22 20:23:55;;;;;;;10.93;6.68;;;;;;;11.95;20.48;99336.63;12584578;23;20019;-79
2022/03/22 20:29:15;;;;;;;9.18;6.63;;;;;;;11.92;20.71;99325.84;12536465;23;20027;-79
2022/03/22 20:34:37;;;;;;;10.60;7.25;;;;;;;11.91;20.65;99325.09;12559501;23;20300;-78
2022/03/22 20:39:57;;;;;;;11.68;7.50;;;;;;;11.79;20.84;99323.25;12521169;23;20023;-78
2022/03/22 20:45:19;;;;;;;13.98;7.43;;;;;;;11.59;21.75;99322.22;12545789;23;20015;-78
2022/03/22 20:50:40;;;;;;;14.27;7.38;;;;;;;11.45;21.36;99322.44;12529371;23;20038;-79
2022/03/22 21:01:40;;;;;;;11.93;7.18;;;;;;;11.28;21.54;99318.75;12537206;23;20007;-79
2022/03/22 21:07:01;;;;;;;14.30;8.38;;;;;;;11.16;22.09;99310.75;12548678;23;20015;-79
2022/03/22 21:12:22;;;;;;;13.95;8.05;;;;;;;11.08;22.35;99321.22;12545554;23;20049;-79
2022/03/22 21:17:42;;;;;;;11.35;7.55;;;;;;;11.01;22.21;99326.81;12543799;23;20029;-79
2022/03/22 21:23:04;;;;;;;17.55;8.63;;;;;;;10.92;22.31;99324.59;12544070;23;20035;-79
2022/03/22 21:28:24;;;;;;;14.82;8.02;;;;;;;10.88;22.57;99322.91;12520420;23;20093;-79
2022/03/22 21:33:46;;;;;;;12.30;8.38;;;;;;;10.80;22.57;99318.63;12525469;23;20213;-78
2022/03/22 21:39:08;;;;;;;13.10;7.88;;;;;;;10.73;22.99;99322.94;12542809;23;20315;-79
2022/03/22 21:44:29;;;;;;;15.90;8.98;;;;;;;10.66;22.86;99320.13;12562450;23;20014;-79
2022/03/22 21:49:52;;;;;;;14.98;8.65;;;;;;;10.63;23.09;99312.88;12524847;23;20030;-80
2022/03/22 21:55:13;;;;;;;14.30;8.57;;;;;;;10.57;22.85;99302.63;12546407;23;20029;-79
2022/03/22 22:00:34;;;;;;;11.63;7.75;;;;;;;10.54;22.93;99300.22;12529801;23;20026;-80
2022/03/22 22:05:55;;;;;;;19.55;9.77;;;;;;;10.43;23.35;99304.13;12555784;23;20098;-79
2022/03/22 22:11:15;;;;;;;15.63;9.90;;;;;;;10.25;23.51;99302.41;12552618;23;20018;-79
2022/03/22 22:16:37;;;;;;;14.40;8.23;;;;;;;10.06;23.62;99299.94;12551827;23;20042;-78
2022/03/22 22:21:58;;;;;;;15.15;8.60;;;;;;;9.89;23.57;99297.66;12552033;23;20026;-80
2022/03/22 22:27:19;;;;;;;16.70;9.35;;;;;;;9.80;24.11;99295.38;12534028;23;20015;-77
2022/03/22 22:38:22;;;;;;;13.50;9.38;;;;;;;9.57;24.51;99311.31;12556555;23;20027;-79
2022/03/22 22:43:43;;;;;;;16.45;9.35;;;;;;;9.50;24.56;99301.59;12528736;23;20030;-78
2022/03/22 22:49:04;;;;;;;15.75;9.95;;;;;;;9.40;24.56;99303.41;12546092;23;20074;-78
2022/03/22 22:54:27;;;;;;;13.52;9.00;;;;;;;9.28;24.66;99308.56;12545756;23;20019;-78
2022/03/22 22:59:48;;;;;;;14.57;9.15;;;;;;;9.10;24.71;99301.94;12549794;23;20019;-78
2022/03/22 23:05:11;;;;;;;17.38;11.02;;;;;;;8.95;25.19;99298.31;12537288;23;20070;-79
2022/03/22 23:10:32;;;;;;;14.43;10.02;;;;;;;8.84;25.54;99294.53;12528414;23;20074;-80
2022/03/22 23:15:54;;;;;;;15.70;9.68;;;;;;;8.80;25.51;99285.03;12549459;23;20018;-79
2022/03/22 23:21:15;;;;;;;19.65;10.18;;;;;;;8.69;26.13;99280.50;12510225;23;20078;-78
2022/03/22 23:26:35;;;;;;;15.98;9.65;;;;;;;8.65;26.21;99277.31;12527299;23;20042;-79
2022/03/22 23:31:57;;;;;;;17.92;10.60;;;;;;;8.55;26.07;99279.09;12517490;23;20082;-78
2022/03/22 23:37:18;;;;;;;18.55;10.65;;;;;;;8.53;26.45;99276.09;12586233;23;20375;-79
2022/03/22 23:42:39;;;;;;;20.30;9.60;;;;;;;8.50;26.63;99274.41;12544822;23;20019;-78
2022/03/22 23:48:00;;;;;;;14.57;9.48;;;;;;;8.45;26.87;99272.50;12565527;23;20021;-79
2022/03/22 23:53:23;;;;;;;16.35;10.30;;;;;;;8.35;26.93;99282.63;12565589;23;20070;-79
2022/03/22 23:58:44;;;;;;;19.30;10.25;;;;;;;8.27;26.86;99279.75;12545169;23;20338;-79
